Time;durP1;ratioP1;P1;durP2;ratioP2;P2;SDS_P1;SDS_P2;PMS_P1;PMS_P2;Temp;Humidity;BMP_temperature;BMP_pressure;BME280_temperature;BME280_humidity;BME280_pressure;Samples;Min_cycle;Max_cycle;Signal;HPM_P1;HPM_P2
2022/06/24 00:00:17;;;;;;;7.43;6.73;;;23.90;99.90;;;;;;5067132;28;20021;-74
2022/06/24 00:02:49;;;;;;;8.35;6.60;;;23.90;99.90;;;;;;5064806;28;20094;-75
2022/06/24 00:05:15;;;;;;;8.30;6.53;;;23.90;99.90;;;;;;5053366;28;20025;-75
2022/06/24 00:07:51;;;;;;;7.55;6.28;;;23.80;99.90;;;;;;5061055;28;20032;-75
2022/06/24 00:10:22;;;;;;;7.63;6.93;;;23.90;99.90;;;;;;5071236;28;20099;-75
2022/06/24 00:12:49;;;;;;;7.72;6.88;;;23.80;99.90;;;;;;5062709;28;20035;-74
2022/06/24 00:15:22;;;;;;;9.23;6.72;;;23.80;99.90;;;;;;5055186;28;20112;-75
2022/06/24 00:17:47;;;;;;;7.38;6.63;;;23.80;99.90;;;;;;5055224;28;20083;-75
2022/06/24 00:20:18;;;;;;;7.45;6.65;;;23.80;99.90;;;;;;5049998;28;20021;-75
2022/06/24 00:22:49;;;;;;;9.88;6.82;;;23.80;99.90;;;;;;5036973;28;20378;-74
2022/06/24 00:25:17;;;;;;;7.93;6.78;;;23.70;99.90;;;;;;5063164;28;20020;-75
2022/06/24 00:27:57;;;;;;;7.00;6.40;;;23.70;99.90;;;;;;5075066;28;20048;-74
2022/06/24 00:30:23;;;;;;;8.00;6.60;;;23.60;99.90;;;;;;5074337;28;20031;-74
2022/06/24 00:32:48;;;;;;;8.60;6.47;;;23.60;99.90;;;;;;5057329;28;20049;-73
2022/06/24 00:35:17;;;;;;;7.88;7.05;;;23.60;99.90;;;;;;5054773;28;20128;-75
2022/06/24 00:37:45;;;;;;;8.43;6.70;;;23.60;99.90;;;;;;5072716;28;20370;-74
2022/06/24 00:40:10;;;;;;;6.80;6.20;;;23.70;99.90;;;;;;5063981;28;20013;-74
2022/06/24 00:42:45;;;;;;;6.72;6.13;;;23.50;99.90;;;;;;5072009;28;20478;-74
2022/06/24 00:45:39;;;;;;;7.90;6.72;;;23.60;99.90;;;;;;5056807;28;20397;-74
2022/06/24 00:48:14;;;;;;;7.05;6.30;;;23.50;99.90;;;;;;5052779;28;20024;-74
2022/06/24 00:50:44;;;;;;;7.43;6.67;;;23.60;99.90;;;;;;5073956;28;20089;-74
2022/06/24 00:53:09;;;;;;;8.23;7.05;;;23.50;99.90;;;;;;5063505;28;20021;-73
2022/06/24 00:55:37;;;;;;;6.97;6.28;;;23.40;99.90;;;;;;5054295;28;20020;-73
2022/06/24 00:58:04;;;;;;;9.30;6.85;;;23.50;99.90;;;;;;5054467;28;20021;-74
2022/06/24 01:00:32;;;;;;;7.47;6.80;;;23.50;99.90;;;;;;5053864;28;20044;-73
2022/06/24 01:03:03;;;;;;;6.95;6.25;;;23.40;99.90;;;;;;5054281;28;20024;-73
2022/06/24 01:05:30;;;;;;;7.82;6.05;;;23.40;99.90;;;;;;5073997;28;20056;-73
2022/06/24 01:07:57;;;;;;;7.85;7.05;;;23.40;99.90;;;;;;5061320;28;20364;-75
2022/06/24 01:10:24;;;;;;;8.20;7.00;;;23.40;99.90;;;;;;5067199;28;20479;-74
2022/06/24 01:12:50;;;;;;;8.13;7.05;;;23.40;99.90;;;;;;5067189;28;20032;-74
2022/06/24 01:15:15;;;;;;;7.15;6.57;;;23.40;99.90;;;;;;5060390;28;20079;-74
2022/06/24 01:17:41;;;;;;;7.88;7.07;;;23.40;99.90;;;;;;5061247;28;20031;-74
2022/06/24 01:20:11;;;;;;;7.22;6.53;;;23.20;99.90;;;;;;5054997;28;20027;-74
2022/06/24 01:22:37;;;;;;;7.82;6.70;;;23.30;99.90;;;;;;5073598;28;20429;-75
2022/06/24 01:25:03;;;;;;;8.15;6.75;;;23.30;99.90;;;;;;5040847;28;20025;-75
2022/06/24 01:27:29;;;;;;;8.88;6.93;;;23.20;99.90;;;;;;5053933;28;20071;-75
2022/06/24 01:29:54;;;;;;;7.75;6.95;;;23.20;99.90;;;;;;5073686;28;20665;-75
2022/06/24 01:32:20;;;;;;;7.90;7.05;;;23.00;99.90;;;;;;5073006;28;20038;-75
2022/06/24 01:34:46;;;;;;;8.27;7.47;;;22.80;99.90;;;;;;5055774;28;20027;-75
2022/06/24 01:37:12;;;;;;;8.77;7.88;;;22.60;99.90;;;;;;5042570;28;20032;-75
2022/06/24 01:39:38;;;;;;;9.48;6.75;;;22.80;99.90;;;;;;5067126;28;20529;-75
2022/06/24 01:42:04;;;;;;;8.15;7.28;;;22.80;99.90;;;;;;5052988;28;20074;-75
2022/06/24 01:44:30;;;;;;;8.20;7.40;;;22.90;99.90;;;;;;5059825;28;20024;-75
2022/06/24 01:46:55;;;;;;;7.68;7.00;;;22.90;99.90;;;;;;5042710;28;20021;-75
2022/06/24 01:49:21;;;;;;;7.75;7.05;;;22.80;99.90;;;;;;5067142;28;20060;-75
2022/06/24 01:51:49;;;;;;;9.38;7.72;;;22.30;99.90;;;;;;5052861;28;20025;-75
2022/06/24 01:54:15;;;;;;;11.18;8.45;;;21.80;99.90;;;;;;5066800;28;20021;-75
2022/06/24 01:56:41;;;;;;;8.55;7.75;;;21.60;99.90;;;;;;5035439;28;20028;-75
2022/06/24 01:59:07;;;;;;;9.25;8.15;;;21.50;99.90;;;;;;5035459;28;20025;-75
2022/06/24 02:01:32;;;;;;;9.40;8.60;;;21.60;99.90;;;;;;5029247;28;20498;-74
2022/06/24 02:03:58;;;;;;;10.05;7.72;;;21.70;99.90;;;;;;5066007;28;20029;-75
2022/06/24 02:06:24;;;;;;;8.40;7.45;;;21.50;99.90;;;;;;5035270;28;20552;-76
2022/06/24 02:08:50;;;;;;;8.32;7.53;;;21.40;99.90;;;;;;5060120;28;20040;-76
2022/06/24 02:14:03;;;;;;;8.05;7.25;;;21.60;99.90;;;;;;5053096;28;20084;-74
2022/06/24 02:16:30;;;;;;;7.75;7.03;;;21.60;99.90;;;;;;5069252;28;20050;-75
2022/06/24 02:18:56;;;;;;;9.13;7.82;;;21.50;99.90;;;;;;5055105;28;20021;-76
2022/06/24 02:21:22;;;;;;;11.63;8.27;;;21.40;99.90;;;;;;5058999;28;20020;-75
2022/06/24 02:23:48;;;;;;;8.82;7.93;;;21.20;99.90;;;;;;5072871;28;20028;-74
2022/06/24 02:26:14;;;;;;;9.63;8.10;;;21.20;99.90;;;;;;5059504;28;20039;-75
2022/06/24 02:28:40;;;;;;;9.93;7.93;;;21.10;99.90;;;;;;5062584;28;20025;-74
2022/06/24 02:31:06;;;;;;;10.80;8.10;;;20.90;99.90;;;;;;5065377;28;20025;-75
2022/06/24 02:33:32;;;;;;;8.75;7.25;;;20.90;99.90;;;;;;5044253;28;20478;-74
2022/06/24 02:35:58;;;;;;;9.35;7.72;;;20.80;99.90;;;;;;5055243;28;20035;-73
2022/06/24 02:38:24;;;;;;;11.55;6.90;;;20.70;99.90;;;;;;5052628;28;20517;-72
2022/06/24 02:40:51;;;;;;;9.40;7.43;;;20.90;99.90;;;;;;5051831;28;20036;-73
2022/06/24 02:43:20;;;;;;;8.27;6.38;;;21.00;99.90;;;;;;5052805;28;20021;-73
2022/06/24 02:46:03;;;;;;;8.05;6.75;;;21.00;99.90;;;;;;5052489;28;20186;-73
2022/06/24 02:48:30;;;;;;;8.00;6.93;;;21.00;99.90;;;;;;5052409;28;20028;-73
2022/06/24 02:50:58;;;;;;;10.20;6.90;;;21.30;99.90;;;;;;5058126;28;20478;-73
2022/06/24 02:53:25;;;;;;;8.55;6.88;;;21.10;99.90;;;;;;5053988;28;20033;-73
2022/06/24 02:55:53;;;;;;;7.78;6.88;;;21.00;99.90;;;;;;5065353;28;20029;-72
2022/06/24 02:58:18;;;;;;;8.05;6.38;;;20.90;99.90;;;;;;5052070;28;20100;-72
2022/06/24 03:00:44;;;;;;;7.57;6.32;;;20.90;99.90;;;;;;5051530;28;20155;-72
2022/06/24 03:03:15;;;;;;;10.10;5.88;;;21.30;99.90;;;;;;5051939;28;20035;-72
2022/06/24 03:05:41;;;;;;;7.95;5.82;;;21.20;99.90;;;;;;5034103;28;20033;-72
2022/06/24 03:08:08;;;;;;;7.60;6.13;;;21.10;99.90;;;;;;5034073;28;20437;-72
2022/06/24 03:10:34;;;;;;;13.35;6.55;;;21.10;99.90;;;;;;5051334;28;20044;-74
2022/06/24 03:13:01;;;;;;;7.15;5.70;;;21.00;99.90;;;;;;5051745;28;20044;-73
2022/06/24 03:15:27;;;;;;;8.35;6.10;;;20.90;99.90;;;;;;5051864;28;20471;-73
2022/06/24 03:17:53;;;;;;;11.32;6.78;;;20.80;99.90;;;;;;5053159;28;20025;-73
2022/06/24 03:20:18;;;;;;;6.43;5.68;;;20.60;99.90;;;;;;5071162;28;20025;-73
2022/06/24 03:22:44;;;;;;;6.97;5.85;;;20.50;99.90;;;;;;5071623;28;20028;-73
2022/06/24 03:25:09;;;;;;;5.47;4.97;;;20.80;99.90;;;;;;5071852;28;20502;-73
2022/06/24 03:27:36;;;;;;;8.00;5.18;;;20.90;99.90;;;;;;5071582;28;20039;-72
2022/06/24 03:30:04;;;;;;;6.70;5.30;;;20.90;99.90;;;;;;5063508;28;20014;-73
2022/06/24 03:32:29;;;;;;;6.50;5.30;;;20.80;99.90;;;;;;5050690;28;20403;-73
2022/06/24 03:34:55;;;;;;;9.48;6.18;;;20.70;99.90;;;;;;5051692;28;20021;-74
2022/06/24 03:37:20;;;;;;;10.68;6.05;;;20.40;99.90;;;;;;5051523;28;20468;-73
2022/06/24 03:39:46;;;;;;;11.23;6.93;;;19.90;99.90;;;;;;5059989;28;20025;-74
2022/06/24 03:42:11;;;;;;;7.90;6.00;;;20.40;99.90;;;;;;5055810;28;20017;-74
2022/06/24 03:44:37;;;;;;;9.45;6.18;;;20.60;99.90;;;;;;5051827;28;20025;-73
2022/06/24 03:47:03;;;;;;;7.65;6.13;;;20.60;99.90;;;;;;5051957;28;20031;-74
2022/06/24 03:49:29;;;;;;;8.13;5.88;;;20.40;99.90;;;;;;5033515;28;20029;-73
2022/06/24 03:51:54;;;;;;;10.30;6.22;;;20.30;99.90;;;;;;5052438;28;20543;-73
2022/06/24 03:54:20;;;;;;;8.43;6.35;;;20.10;99.90;;;;;;5063143;28;20036;-73
2022/06/24 03:56:46;;;;;;;9.45;6.00;;;20.00;99.90;;;;;;5033682;28;20440;-74
2022/06/24 03:59:12;;;;;;;8.00;5.70;;;19.90;99.90;;;;;;5059125;28;20059;-74
2022/06/24 04:01:37;;;;;;;8.27;6.25;;;19.90;99.90;;;;;;5070689;28;20027;-74
2022/06/24 04:04:03;;;;;;;8.35;6.78;;;19.80;99.90;;;;;;5071242;28;20070;-73
2022/06/24 04:06:29;;;;;;;9.85;6.57;;;20.00;99.90;;;;;;5071286;28;20550;-73
2022/06/24 04:08:55;;;;;;;7.80;5.85;;;20.30;99.90;;;;;;5071479;28;20052;-73
2022/06/24 04:11:21;;;;;;;8.52;5.75;;;20.60;99.90;;;;;;5070631;28;20107;-73
2022/06/24 04:13:47;;;;;;;7.38;5.93;;;20.60;99.90;;;;;;5063920;28;20064;-73
2022/06/24 04:16:12;;;;;;;9.15;5.25;;;20.60;99.90;;;;;;5046811;28;20060;-74
2022/06/24 04:18:38;;;;;;;8.23;5.80;;;20.70;99.90;;;;;;5051180;28;20021;-73
2022/06/24 04:21:11;;;;;;;7.57;4.78;;;20.80;99.90;;;;;;5032785;28;20517;-73
2022/06/24 04:23:37;;;;;;;8.48;4.55;;;20.90;99.90;;;;;;5046389;28;20012;-73
2022/06/24 04:26:03;;;;;;;7.10;4.60;;;21.00;99.90;;;;;;5057638;28;20487;-72
2022/06/24 04:28:28;;;;;;;11.77;4.35;;;21.00;99.90;;;;;;5071113;28;20024;-73
2022/06/24 04:30:54;;;;;;;8.35;4.30;;;21.00;99.90;;;;;;5056985;28;20090;-73
2022/06/24 04:33:21;;;;;;;6.80;4.35;;;21.10;99.90;;;;;;5063757;28;20513;-73
2022/06/24 04:35:47;;;;;;;5.57;4.03;;;21.50;99.90;;;;;;5050979;28;20029;-73
2022/06/24 04:38:13;;;;;;;7.53;4.63;;;21.60;99.90;;;;;;5051054;28;20104;-72
2022/06/24 04:40:38;;;;;;;6.68;4.30;;;21.60;99.90;;;;;;5050375;28;20117;-73
2022/06/24 04:43:04;;;;;;;7.28;4.25;;;21.30;99.90;;;;;;5058454;28;20021;-74
2022/06/24 04:45:30;;;;;;;8.10;4.10;;;21.40;99.90;;;;;;5057706;28;20082;-73
2022/06/24 04:47:56;;;;;;;5.97;4.00;;;21.30;99.90;;;;;;5071062;28;20611;-73
2022/06/24 04:50:22;;;;;;;7.25;4.45;;;21.00;99.90;;;;;;5038294;28;20067;-73
2022/06/24 04:52:48;;;;;;;7.15;3.97;;;20.70;99.90;;;;;;5050821;28;20120;-73
2022/06/24 04:55:13;;;;;;;7.13;4.57;;;20.90;99.90;;;;;;5051014;28;20033;-73
2022/06/24 04:57:39;;;;;;;6.72;4.93;;;21.00;99.90;;;;;;5054414;28;20025;-73
2022/06/24 05:00:06;;;;;;;8.45;4.90;;;20.50;99.90;;;;;;5056042;28;20021;-73
2022/06/24 05:02:31;;;;;;;9.05;4.93;;;20.30;99.90;;;;;;5041133;28;20108;-73
2022/06/24 05:04:57;;;;;;;6.65;4.47;;;20.40;99.90;;;;;;5054456;28;20517;-73
2022/06/24 05:07:22;;;;;;;8.50;4.75;;;20.80;99.90;;;;;;5054345;28;20043;-72
2022/06/24 05:09:48;;;;;;;10.77;4.95;;;20.90;99.90;;;;;;5055719;28;20056;-72
2022/06/24 05:12:14;;;;;;;7.03;5.25;;;20.50;99.90;;;;;;5073519;28;20099;-73
2022/06/24 05:14:39;;;;;;;7.90;5.05;;;20.00;99.90;;;;;;5060666;28;20032;-73
2022/06/24 05:17:05;;;;;;;7.28;5.22;;;19.90;99.90;;;;;;5065904;28;20425;-72
2022/06/24 05:19:30;;;;;;;10.20;4.70;;;19.70;99.90;;;;;;5068895;28;20058;-72
2022/06/24 05:21:56;;;;;;;6.88;4.68;;;19.70;99.90;;;;;;5065179;28;20028;-73
2022/06/24 05:24:22;;;;;;;8.15;5.50;;;19.50;99.90;;;;;;5053869;28;20024;-72
2022/06/24 05:26:48;;;;;;;7.60;5.07;;;19.50;99.90;;;;;;5053835;28;20025;-72
2022/06/24 05:29:14;;;;;;;7.22;3.95;;;19.30;99.90;;;;;;5055356;28;20037;-72
2022/06/24 05:31:40;;;;;;;11.38;4.47;;;19.60;99.90;;;;;;5064876;28;20036;-72
2022/06/24 05:34:07;;;;;;;6.95;4.18;;;19.40;99.90;;;;;;5053860;28;20135;-73
2022/06/24 05:36:33;;;;;;;6.03;4.00;;;19.10;99.90;;;;;;5061929;28;20024;-72
2022/06/24 05:39:01;;;;;;;6.63;4.68;;;19.10;99.90;;;;;;5058928;28;20436;-72
2022/06/24 05:41:27;;;;;;;9.55;5.00;;;19.00;99.90;;;;;;5035105;28;20017;-73
2022/06/24 05:43:53;;;;;;;8.75;4.38;;;18.90;99.90;;;;;;5055066;28;20021;-73
2022/06/24 05:46:18;;;;;;;8.20;4.57;;;19.00;99.90;;;;;;5055615;28;20028;-71
2022/06/24 05:48:44;;;;;;;7.43;4.65;;;18.80;99.90;;;;;;5073465;28;20067;-72
2022/06/24 05:51:15;;;;;;;6.43;4.47;;;18.80;99.90;;;;;;5065437;28;20036;-72
2022/06/24 05:56:26;;;;;;;6.95;5.22;;;18.80;99.90;;;;;;5061644;28;20036;-72
2022/06/24 05:58:52;;;;;;;8.00;5.50;;;18.90;99.90;;;;;;5071501;28;20490;-72
2022/06/24 06:01:18;;;;;;;8.88;5.50;;;19.00;99.90;;;;;;5038927;28;20021;-72
2022/06/24 06:03:43;;;;;;;9.55;6.07;;;19.10;99.90;;;;;;5056283;28;20020;-71
2022/06/24 06:06:09;;;;;;;11.65;5.90;;;19.20;99.90;;;;;;5061714;28;20475;-72
2022/06/24 06:08:36;;;;;;;10.65;5.60;;;19.60;99.90;;;;;;5057701;28;20036;-74
2022/06/24 06:11:09;;;;;;;7.70;5.10;;;19.70;99.90;;;;;;5061276;28;20021;-71
2022/06/24 06:13:34;;;;;;;7.90;5.47;;;19.60;99.90;;;;;;5066587;28;20032;-71
2022/06/24 06:16:00;;;;;;;8.52;5.63;;;19.50;99.90;;;;;;5053014;28;20033;-72
2022/06/24 06:18:25;;;;;;;7.30;5.13;;;19.40;99.90;;;;;;5052963;28;20470;-71
2022/06/24 06:20:51;;;;;;;10.95;5.05;;;19.30;99.90;;;;;;5043341;28;20474;-72
2022/06/24 06:23:16;;;;;;;7.20;5.00;;;19.30;99.90;;;;;;5058486;28;20016;-71
2022/06/24 06:25:42;;;;;;;8.85;5.03;;;19.60;99.90;;;;;;5060427;28;20610;-73
2022/06/24 06:28:08;;;;;;;8.50;5.40;;;19.40;99.90;;;;;;5058398;28;20090;-72
2022/06/24 06:30:33;;;;;;;10.80;5.50;;;19.60;99.90;;;;;;5059921;28;20100;-72
2022/06/24 06:32:59;;;;;;;9.25;5.05;;;19.70;99.90;;;;;;5060406;28;20033;-73
2022/06/24 06:35:24;;;;;;;7.07;4.72;;;19.60;99.90;;;;;;5057702;28;20548;-71
2022/06/24 06:37:50;;;;;;;7.30;4.63;;;19.70;99.90;;;;;;5055137;28;20029;-72
2022/06/24 06:40:17;;;;;;;7.13;4.80;;;19.60;99.90;;;;;;5053692;28;20561;-72
2022/06/24 06:42:42;;;;;;;8.02;5.20;;;19.50;99.90;;;;;;5059224;28;20081;-72
2022/06/24 06:45:08;;;;;;;7.88;5.50;;;19.40;99.90;;;;;;5060764;28;20033;-72
2022/06/24 06:47:34;;;;;;;7.85;5.10;;;19.40;99.90;;;;;;5065713;28;20025;-72
2022/06/24 06:49:59;;;;;;;7.60;4.82;;;19.50;99.90;;;;;;5052707;28;20025;-72
2022/06/24 06:52:25;;;;;;;8.85;5.22;;;19.60;99.90;;;;;;5057225;28;20025;-71
2022/06/24 06:54:51;;;;;;;10.25;4.70;;;19.60;99.90;;;;;;5060363;28;20108;-72
2022/06/24 06:57:16;;;;;;;7.68;5.55;;;19.60;99.90;;;;;;5052107;28;20114;-73
2022/06/24 06:59:42;;;;;;;6.57;4.82;;;19.70;99.90;;;;;;5046273;28;20031;-73
2022/06/24 07:02:07;;;;;;;9.55;5.05;;;20.00;99.90;;;;;;5057991;28;20112;-71
2022/06/24 07:04:33;;;;;;;8.82;5.30;;;20.20;99.90;;;;;;5072068;28;20501;-72
2022/06/24 07:06:58;;;;;;;7.88;5.10;;;20.50;99.90;;;;;;5052548;28;20562;-72
2022/06/24 07:09:24;;;;;;;8.43;4.82;;;20.50;99.90;;;;;;5062872;28;20033;-72
2022/06/24 07:11:49;;;;;;;7.35;4.93;;;20.20;99.90;;;;;;5071083;28;20371;-72
2022/06/24 07:14:15;;;;;;;6.15;3.85;;;20.20;99.90;;;;;;5071949;28;20047;-72
2022/06/24 07:16:41;;;;;;;9.15;4.32;;;19.80;99.90;;;;;;5067086;28;20040;-71
2022/06/24 07:19:06;;;;;;;5.18;3.70;;;20.10;99.90;;;;;;5051414;28;20498;-71
2022/06/24 07:21:32;;;;;;;7.35;3.70;;;20.20;99.90;;;;;;5068886;28;20485;-72
2022/06/24 07:23:57;;;;;;;6.30;3.55;;;20.20;99.90;;;;;;5071719;28;20024;-71
2022/06/24 07:26:23;;;;;;;4.53;3.10;;;20.10;99.90;;;;;;5067788;28;20037;-72
2022/06/24 07:28:48;;;;;;;7.60;3.50;;;20.20;99.90;;;;;;5051688;28;20063;-72
2022/06/24 07:31:18;;;;;;;5.63;3.63;;;20.30;99.90;;;;;;5050999;28;20036;-72
2022/06/24 07:33:44;;;;;;;4.85;2.83;;;20.60;99.90;;;;;;5051492;28;20025;-72
2022/06/24 07:36:09;;;;;;;5.10;3.33;;;20.70;99.90;;;;;;5051504;28;20037;-72
2022/06/24 07:38:35;;;;;;;8.10;3.60;;;20.60;99.90;;;;;;5051491;28;20025;-71
2022/06/24 07:41:01;;;;;;;8.27;3.50;;;20.70;99.90;;;;;;5050872;28;20029;-72
2022/06/24 07:43:27;;;;;;;5.30;3.15;;;20.70;99.90;;;;;;5062772;28;20029;-72
2022/06/24 07:45:53;;;;;;;6.20;3.10;;;20.50;99.90;;;;;;5053471;28;20032;-72
2022/06/24 07:48:19;;;;;;;6.18;2.90;;;21.00;99.90;;;;;;5051828;28;20122;-72
2022/06/24 07:50:45;;;;;;;4.70;2.85;;;21.40;99.90;;;;;;5050809;28;20515;-72
2022/06/24 07:53:11;;;;;;;5.75;2.97;;;21.70;99.90;;;;;;5051028;28;20122;-73
2022/06/24 07:58:20;;;;;;;4.45;2.90;;;21.10;99.90;;;;;;5052162;28;20122;-72
2022/06/24 08:00:47;;;;;;;3.47;2.40;;;21.40;99.90;;;;;;5063517;28;20064;-71
2022/06/24 08:03:12;;;;;;;4.72;2.13;;;22.10;99.90;;;;;;5045287;28;20033;-71
2022/06/24 08:05:38;;;;;;;2.40;1.60;;;22.40;99.90;;;;;;5051366;28;20029;-71
2022/06/24 08:08:03;;;;;;;3.10;1.42;;;22.40;99.90;;;;;;5051168;28;20723;-71
2022/06/24 08:10:29;;;;;;;2.63;1.77;;;22.40;99.90;;;;;;5050596;28;20557;-71
2022/06/24 08:12:55;;;;;;;3.65;1.63;;;22.40;99.90;;;;;;5051126;28;20056;-70
2022/06/24 08:15:20;;;;;;;3.42;1.50;;;22.70;99.90;;;;;;5051114;28;20036;-71
2022/06/24 08:17:48;;;;;;;3.28;1.73;;;23.30;99.90;;;;;;5051176;28;20377;-72
2022/06/24 08:20:13;;;;;;;2.88;1.58;;;22.90;99.90;;;;;;5050780;28;20479;-72
2022/06/24 08:22:39;;;;;;;3.35;1.50;;;22.60;99.90;;;;;;5064692;28;20029;-72
2022/06/24 08:25:05;;;;;;;3.85;1.70;;;22.80;99.90;;;;;;5064038;28;20021;-72
2022/06/24 08:27:31;;;;;;;2.28;1.50;;;22.80;99.90;;;;;;5033117;28;20060;-71
2022/06/24 08:29:57;;;;;;;2.95;1.40;;;22.30;99.90;;;;;;5051086;28;20053;-72
2022/06/24 08:32:22;;;;;;;3.42;1.60;;;22.10;99.90;;;;;;5053970;28;20071;-71
2022/06/24 08:34:48;;;;;;;2.72;1.52;;;22.50;99.90;;;;;;5054852;28;20036;-71
2022/06/24 08:37:13;;;;;;;1.73;1.25;;;22.80;99.90;;;;;;5068358;28;20533;-72
2022/06/24 08:39:39;;;;;;;3.47;1.65;;;23.20;99.90;;;;;;5074760;28;20501;-71
2022/06/24 08:42:10;;;;;;;3.88;1.52;;;23.60;99.90;;;;;;5073899;28;20020;-71
2022/06/24 08:44:36;;;;;;;4.63;1.77;;;23.80;99.90;;;;;;5075168;28;20024;-72
2022/06/24 08:47:03;;;;;;;4.70;1.63;;;23.80;99.90;;;;;;5074622;28;20032;-72
2022/06/24 08:49:32;;;;;;;3.70;1.90;;;23.80;99.90;;;;;;5067158;28;20032;-72
2022/06/24 08:51:59;;;;;;;2.65;1.63;;;23.20;99.90;;;;;;5053816;28;20032;-72
2022/06/24 08:54:30;;;;;;;3.85;1.92;;;22.80;99.90;;;;;;5036723;28;20021;-72
2022/06/24 08:56:56;;;;;;;5.05;1.88;;;23.40;99.90;;;;;;5054378;28;20025;-74
2022/06/24 08:59:21;;;;;;;4.10;2.20;;;23.30;99.90;;;;;;5054553;28;20108;-74
2022/06/24 09:01:47;;;;;;;4.25;2.10;;;23.70;99.90;;;;;;5053761;28;20491;-74
2022/06/24 09:04:13;;;;;;;3.08;1.77;;;23.50;99.90;;;;;;5036345;28;20023;-74
2022/06/24 09:06:40;;;;;;;4.45;1.85;;;23.70;99.90;;;;;;5054384;28;20024;-74
2022/06/24 09:09:06;;;;;;;4.10;2.10;;;23.70;99.90;;;;;;5054350;28;20503;-74
2022/06/24 09:11:40;;;;;;;5.38;2.08;;;23.40;99.90;;;;;;5053550;28;20078;-74
2022/06/24 09:14:06;;;;;;;2.90;1.90;;;24.00;99.90;;;;;;5036246;28;20033;-74
2022/06/24 09:16:35;;;;;;;5.95;2.55;;;24.70;99.90;;;;;;5052483;28;20497;-74
2022/06/24 09:19:03;;;;;;;4.90;2.42;;;24.80;99.90;;;;;;5063952;28;20112;-74
2022/06/24 09:21:32;;;;;;;6.32;2.20;;;25.30;99.90;;;;;;5066695;28;20475;-74
2022/06/24 09:24:00;;;;;;;6.88;3.03;;;24.70;99.90;;;;;;5053970;28;20025;-74
2022/06/24 09:26:31;;;;;;;8.95;2.65;;;24.40;99.90;;;;;;5029568;28;20482;-73
2022/06/24 09:28:57;;;;;;;5.53;2.47;;;24.00;99.90;;;;;;5073966;28;20081;-74
2022/06/24 09:31:28;;;;;;;3.95;2.13;;;23.30;99.90;;;;;;5073149;28;20098;-74
2022/06/24 09:33:54;;;;;;;6.72;2.60;;;23.10;99.90;;;;;;5043069;28;20079;-74
2022/06/24 09:36:25;;;;;;;4.60;2.50;;;23.50;99.90;;;;;;5059717;28;20021;-74
2022/06/24 09:38:55;;;;;;;7.95;2.83;;;24.20;99.90;;;;;;5073786;28;20147;-74
2022/06/24 09:41:21;;;;;;;5.60;3.20;;;24.30;99.90;;;;;;5039927;28;20086;-74
2022/06/24 09:43:47;;;;;;;4.72;2.70;;;24.20;99.90;;;;;;5041853;28;20021;-74
2022/06/24 09:46:21;;;;;;;6.68;2.80;;;24.00;99.90;;;;;;5053720;28;20028;-74
2022/06/24 09:48:47;;;;;;;4.40;2.63;;;23.90;99.90;;;;;;5047922;28;20510;-74
2022/06/24 09:51:15;;;;;;;6.82;2.40;;;23.70;99.90;;;;;;5065192;28;20029;-73
2022/06/24 09:53:40;;;;;;;6.38;2.50;;;23.60;99.90;;;;;;5048733;28;20028;-73
2022/06/24 09:56:08;;;;;;;6.95;2.80;;;23.80;99.90;;;;;;5044437;28;20028;-74
2022/06/24 09:58:37;;;;;;;5.15;2.72;;;23.80;99.90;;;;;;5049328;28;20108;-73
2022/06/24 10:01:04;;;;;;;4.55;2.40;;;23.90;99.90;;;;;;5060126;28;20021;-74
2022/06/24 10:03:30;;;;;;;6.88;2.28;;;23.90;99.90;;;;;;5066604;28;20048;-73
2022/06/24 10:06:04;;;;;;;5.10;2.53;;;24.10;99.90;;;;;;5053416;28;20479;-74
2022/06/24 10:08:37;;;;;;;6.53;2.40;;;24.40;99.90;;;;;;5053241;28;20029;-73
2022/06/24 10:11:08;;;;;;;6.35;2.88;;;24.40;99.90;;;;;;5052906;28;20031;-72
2022/06/24 10:13:35;;;;;;;6.50;3.25;;;24.80;99.90;;;;;;5049180;28;20132;-73
2022/06/24 10:16:05;;;;;;;6.55;2.70;;;24.50;99.90;;;;;;5053171;28;20032;-73
2022/06/24 10:18:41;;;;;;;6.53;2.47;;;24.90;99.90;;;;;;5039953;28;20025;-74
2022/06/24 10:21:09;;;;;;;8.18;2.85;;;25.10;99.90;;;;;;5027795;28;20117;-73
2022/06/24 10:23:47;;;;;;;7.57;3.40;;;25.30;99.90;;;;;;5064426;28;20021;-73
2022/06/24 10:26:29;;;;;;;5.78;2.72;;;25.00;99.90;;;;;;5052880;28;20106;-73
2022/06/24 10:29:03;;;;;;;6.25;2.85;;;24.60;99.90;;;;;;5065490;28;20029;-74
2022/06/24 10:31:52;;;;;;;6.28;3.20;;;25.10;99.90;;;;;;5064880;28;20021;-74
2022/06/24 10:34:20;;;;;;;6.45;3.08;;;25.80;99.90;;;;;;5034839;28;20590;-73
2022/06/24 10:36:47;;;;;;;5.05;2.72;;;26.30;99.90;;;;;;5052716;28;20033;-75
2022/06/24 10:39:16;;;;;;;4.40;2.85;;;26.40;99.90;;;;;;5052654;28;20406;-74
2022/06/24 10:41:42;;;;;;;6.03;2.75;;;26.30;99.90;;;;;;5062838;28;20433;-73
2022/06/24 10:44:28;;;;;;;6.28;2.70;;;26.40;99.90;;;;;;5054682;28;20025;-74
2022/06/24 10:47:12;;;;;;;5.10;2.92;;;27.40;99.90;;;;;;5052243;28;20033;-74
2022/06/24 10:52:48;;;;;;;7.35;3.53;;;26.30;99.90;;;;;;5051694;28;20033;-74
2022/06/24 10:55:28;;;;;;;5.35;2.80;;;25.70;99.90;;;;;;5052296;28;20024;-74
2022/06/24 10:57:55;;;;;;;6.15;3.08;;;26.60;99.90;;;;;;5062651;28;20061;-74
2022/06/24 11:00:27;;;;;;;5.22;2.35;;;26.90;99.90;;;;;;5071410;28;20032;-74
2022/06/24 11:03:04;;;;;;;5.07;3.05;;;27.50;99.90;;;;;;5071938;28;20479;-73
2022/06/24 11:05:36;;;;;;;7.50;3.10;;;26.70;99.90;;;;;;5052057;28;20432;-74
2022/06/24 11:08:08;;;;;;;6.90;3.17;;;25.90;99.90;;;;;;5052012;28;20056;-74
2022/06/24 11:10:34;;;;;;;6.03;3.20;;;26.50;99.90;;;;;;5044595;28;20524;-74
2022/06/24 11:13:02;;;;;;;9.45;3.05;;;26.10;99.90;;;;;;5043864;28;20479;-74
2022/06/24 11:15:46;;;;;;;5.55;2.50;;;26.10;99.90;;;;;;5038556;28;20028;-74
2022/06/24 11:18:17;;;;;;;6.38;2.50;;;27.30;99.90;;;;;;5052327;28;20016;-74
2022/06/24 11:20:48;;;;;;;6.50;2.83;;;27.00;99.90;;;;;;5050809;28;20116;-74
2022/06/24 11:23:19;;;;;;;6.07;2.22;;;27.90;99.90;;;;;;5035526;28;20029;-74
2022/06/24 11:25:55;;;;;;;5.70;2.05;;;27.60;99.90;;;;;;5040235;28;20028;-74
2022/06/24 11:28:25;;;;;;;5.97;2.25;;;27.40;99.90;;;;;;5055333;28;20081;-74
2022/06/24 11:30:52;;;;;;;5.03;2.25;;;26.80;99.90;;;;;;5060088;28;20044;-74
2022/06/24 11:33:19;;;;;;;8.80;2.80;;;26.90;99.90;;;;;;5033663;28;20029;-74
2022/06/24 11:35:49;;;;;;;4.75;2.50;;;26.40;99.90;;;;;;5049463;28;20027;-74
2022/06/24 11:38:19;;;;;;;5.88;2.80;;;27.50;99.90;;;;;;5036316;28;20495;-74
2022/06/24 11:40:46;;;;;;;6.20;2.38;;;28.10;99.90;;;;;;5032207;28;20036;-74
2022/06/24 11:43:13;;;;;;;9.35;3.22;;;28.70;99.90;;;;;;5038939;28;20083;-74
2022/06/24 11:45:43;;;;;;;5.47;2.55;;;29.30;99.90;;;;;;5050170;28;20021;-73
2022/06/24 11:48:11;;;;;;;6.78;2.80;;;29.00;99.90;;;;;;5050347;28;20417;-71
2022/06/24 11:50:39;;;;;;;5.32;2.80;;;28.60;99.90;;;;;;5046679;28;20021;-71
2022/06/24 11:53:06;;;;;;;10.13;2.95;;;28.50;99.90;;;;;;5051325;28;20391;-71
2022/06/24 11:55:34;;;;;;;7.03;2.45;;;29.30;99.90;;;;;;5051229;28;20027;-71
2022/06/24 11:58:02;;;;;;;5.65;2.38;;;29.90;99.90;;;;;;5033593;28;20017;-71
2022/06/24 12:00:32;;;;;;;6.95;2.75;;;29.30;99.90;;;;;;5032910;28;20108;-71
2022/06/24 12:03:00;;;;;;;6.65;2.60;;;28.40;99.90;;;;;;5050414;28;20028;-71
2022/06/24 12:05:28;;;;;;;5.18;2.55;;;28.10;99.90;;;;;;5053697;28;20022;-71
2022/06/24 12:07:56;;;;;;;6.00;2.33;;;27.40;99.90;;;;;;5055570;28;20387;-75
2022/06/24 12:10:21;;;;;;;7.22;2.72;;;26.80;99.90;;;;;;5036923;28;20036;-71
2022/06/24 12:13:01;;;;;;;3.58;2.40;;;27.10;99.90;;;;;;5055355;28;20022;-71
2022/06/24 12:15:35;;;;;;;6.93;2.63;;;26.90;99.90;;;;;;5043135;28;20025;-71
2022/06/24 12:18:02;;;;;;;5.75;2.25;;;27.20;99.90;;;;;;5055218;28;20112;-71
2022/06/24 12:20:29;;;;;;;4.03;2.38;;;27.70;99.90;;;;;;5054645;28;20040;-72
2022/06/24 12:23:20;;;;;;;7.45;2.60;;;28.10;99.90;;;;;;5049445;28;20100;-71
2022/06/24 12:25:48;;;;;;;7.78;2.75;;;28.10;99.90;;;;;;5045908;28;20154;-71
2022/06/24 12:28:26;;;;;;;6.45;2.50;;;27.40;99.90;;;;;;5054881;28;20394;-72
2022/06/24 12:31:09;;;;;;;6.95;2.45;;;27.90;99.90;;;;;;5054272;28;20033;-71
2022/06/24 12:33:47;;;;;;;7.40;2.45;;;28.30;99.90;;;;;;5054668;28;20048;-71
2022/06/24 12:36:15;;;;;;;4.18;2.20;;;28.60;99.90;;;;;;5054690;28;20079;-71
2022/06/24 12:38:53;;;;;;;4.68;2.20;;;28.90;99.90;;;;;;5054743;28;20513;-73
2022/06/24 12:41:21;;;;;;;4.00;2.17;;;28.50;99.90;;;;;;5054233;28;20391;-74
2022/06/24 12:43:55;;;;;;;4.47;2.40;;;27.60;99.90;;;;;;5036867;28;20021;-73
2022/06/24 12:46:23;;;;;;;4.60;2.45;;;27.70;99.90;;;;;;5048720;28;20035;-75
2022/06/24 12:51:41;;;;;;;4.40;2.28;;;27.60;99.90;;;;;;5074278;28;20430;-74
2022/06/24 12:54:07;;;;;;;5.82;1.95;;;27.00;99.90;;;;;;5074348;28;20031;-74
2022/06/24 12:56:34;;;;;;;3.80;2.00;;;26.80;99.90;;;;;;5054423;28;20025;-74
2022/06/24 12:59:00;;;;;;;2.63;1.70;;;26.70;99.90;;;;;;5028933;28;20025;-75
2022/06/24 13:01:26;;;;;;;4.82;2.20;;;26.80;99.90;;;;;;5074526;28;20028;-74